Terminal Aerodrome Forecast
Issued by NWS

Home | Current Version | Previous Version | Text Only | Print | Product List | Glossary On
Versions: 1 2 3 4 5 6 7 8 9 10 11 12 13 14 15 16 17 18 19 20 21 22 23 24 25 26 27 28 29 30
000
FTAK31 PANC 201728
TAFAGK
TAF
PAGK 201728Z 2018/2118 16008KT P6SM FEW030 OVC150
     FM210300 17012G18KT P6SM SCT030 OVC050
     FM211400 16007KT P6SM OVC050=

USA.gov is the U.S. government's official web portal to all federal, state and local government web resources and services.